Terminal Aerodrome Forecast
Issued by NWS

Home | Current Version | Previous Version | Text Only | Print | Product List | Glossary On
Versions: 1 2 3 4 5 6 7 8 9 10 11 12 13 14 15 16
711
FTUS42 KJAX 281212 AAA
TAFCRG
TAF AMD
KCRG 281212Z 2812/0112 00000KT P6SM FEW009
      TEMPO 2812/2813 5SM BR
     FM281400 15007KT P6SM SCT030
     FM281700 14009KT P6SM BKN040
     FM010400 16003KT 3SM BR SCT003 BKN010
     FM010800 17003KT 2SM BR BKN003=

USA.gov is the U.S. government's official web portal to all federal, state and local government web resources and services.